Time;durP1;ratioP1;P1;durP2;ratioP2;P2;SDS_P1;SDS_P2;PMS_P1;PMS_P2;Temp;Humidity;BMP_temperature;BMP_pressure;BME280_temperature;BME280_humidity;BME280_pressure;Samples;Min_cycle;Max_cycle;Signal;HPM_P1;HPM_P2
2021/01/27 00:00:29;;;;;;;11.18;6.80;;;3.10;99.90;;;;;;6189597;23;20059;-88
2021/01/27 00:02:55;;;;;;;11.80;7.15;;;3.10;99.90;;;;;;6189164;23;20012;-87
2021/01/27 00:05:38;;;;;;;12.55;7.25;;;3.00;99.90;;;;;;6189456;23;20020;-87
2021/01/27 00:08:04;;;;;;;13.88;6.88;;;3.00;99.90;;;;;;6188735;23;20013;-88
2021/01/27 00:13:52;;;;;;;12.30;6.78;;;2.90;99.90;;;;;;6215216;23;20458;-87
2021/01/27 00:16:17;;;;;;;13.18;6.95;;;2.90;99.90;;;;;;6215731;23;20008;-87
2021/01/27 00:18:43;;;;;;;13.07;7.13;;;2.90;99.90;;;;;;6215634;23;20437;-86
2021/01/27 00:21:08;;;;;;;12.60;6.95;;;2.90;99.90;;;;;;6188621;23;20008;-88
2021/01/27 00:23:34;;;;;;;9.93;5.88;;;2.90;99.90;;;;;;6188610;23;20075;-87
2021/01/27 00:25:59;;;;;;;12.05;7.53;;;2.90;99.90;;;;;;6188708;23;20005;-87
2021/01/27 00:28:25;;;;;;;13.15;7.10;;;2.90;99.90;;;;;;6216129;23;20007;-87
2021/01/27 00:30:50;;;;;;;13.82;6.97;;;2.90;99.90;;;;;;6190044;23;20013;-87
2021/01/27 00:33:17;;;;;;;11.43;7.00;;;2.90;99.90;;;;;;6216195;23;20078;-87
2021/01/27 00:35:46;;;;;;;13.63;7.10;;;2.90;99.90;;;;;;6215549;23;20135;-87
2021/01/27 00:38:18;;;;;;;11.88;7.00;;;2.90;99.90;;;;;;6189003;23;20024;-86
2021/01/27 00:40:44;;;;;;;12.10;6.88;;;3.00;99.90;;;;;;6189592;23;20469;-87
2021/01/27 00:43:10;;;;;;;11.63;7.72;;;2.90;99.90;;;;;;6188851;23;20050;-85
2021/01/27 00:45:36;;;;;;;10.43;6.88;;;2.90;99.90;;;;;;6189077;23;20015;-85
2021/01/27 00:48:02;;;;;;;11.10;7.07;;;2.90;99.90;;;;;;6189844;23;20327;-85
2021/01/27 00:50:28;;;;;;;10.77;7.05;;;2.90;99.90;;;;;;6215887;23;20024;-86
2021/01/27 00:52:53;;;;;;;11.98;6.70;;;3.00;99.90;;;;;;6189343;23;20007;-86
2021/01/27 00:55:22;;;;;;;12.70;7.20;;;2.90;99.90;;;;;;6216156;23;20024;-87
2021/01/27 00:57:48;;;;;;;11.10;7.07;;;2.90;99.90;;;;;;6215616;23;20058;-86
2021/01/27 01:00:26;;;;;;;11.65;6.72;;;3.00;99.90;;;;;;6189079;23;20008;-88
2021/01/27 01:02:52;;;;;;;9.90;6.80;;;3.00;99.90;;;;;;6189190;23;20071;-87
2021/01/27 01:05:33;;;;;;;11.48;6.32;;;3.00;99.90;;;;;;6189117;23;20001;-87
2021/01/27 01:07:59;;;;;;;11.80;7.35;;;3.00;99.90;;;;;;6189369;23;20352;-87
2021/01/27 01:10:37;;;;;;;11.93;6.75;;;3.00;99.90;;;;;;6189640;23;20013;-87
2021/01/27 01:13:05;;;;;;;10.07;6.25;;;3.00;99.90;;;;;;6215394;23;20028;-86
2021/01/27 01:15:31;;;;;;;10.73;6.63;;;3.00;99.90;;;;;;6216500;23;20005;-86
2021/01/27 01:17:57;;;;;;;9.82;6.20;;;3.00;99.90;;;;;;6189431;23;20035;-87
2021/01/27 01:20:23;;;;;;;9.27;6.03;;;3.00;99.90;;;;;;6188764;23;20001;-87
2021/01/27 01:22:56;;;;;;;13.07;6.65;;;3.00;99.90;;;;;;6188392;23;20142;-86
2021/01/27 01:25:25;;;;;;;9.57;6.30;;;3.00;99.90;;;;;;6178015;23;20000;-87
2021/01/27 01:27:50;;;;;;;9.90;6.95;;;3.00;99.90;;;;;;6217709;23;20623;-86
2021/01/27 01:30:27;;;;;;;9.13;6.32;;;3.00;99.90;;;;;;6195254;23;20004;-87
2021/01/27 01:32:55;;;;;;;8.80;5.32;;;3.00;99.90;;;;;;6221247;23;20001;-87
2021/01/27 01:35:21;;;;;;;11.60;6.20;;;3.00;99.90;;;;;;6218016;23;20009;-88
2021/01/27 01:37:47;;;;;;;9.82;6.40;;;3.00;99.90;;;;;;6220761;23;20018;-87
2021/01/27 01:40:20;;;;;;;11.38;5.85;;;3.00;99.90;;;;;;6190067;23;20036;-86
2021/01/27 01:42:46;;;;;;;;;;;3.00;99.90;;;;;;6211255;23;20078;-87
2021/01/27 01:45:30;;;;;;;12.00;5.93;;;3.00;99.90;;;;;;6221162;23;19900;-88
2021/01/27 01:47:57;;;;;;;;;;;3.00;99.90;;;;;;6217111;23;20047;-87
2021/01/27 01:50:24;;;;;;;8.73;5.50;;;3.00;99.90;;;;;;6189167;23;19950;-86
2021/01/27 01:52:50;;;;;;;9.23;5.70;;;3.00;99.90;;;;;;6189580;23;20319;-88
2021/01/27 01:55:17;;;;;;;9.15;5.45;;;3.00;99.90;;;;;;6216044;23;20001;-84
2021/01/27 01:57:44;;;;;;;8.68;5.40;;;3.00;99.90;;;;;;6215462;23;20091;-86
2021/01/27 02:00:11;;;;;;;10.65;5.43;;;3.00;99.90;;;;;;6214732;23;20355;-86
2021/01/27 02:02:38;;;;;;;10.27;6.97;;;3.00;99.90;;;;;;6186226;23;20004;-86
2021/01/27 02:05:09;;;;;;;8.23;5.53;;;3.00;99.90;;;;;;6186601;23;20011;-87
2021/01/27 02:07:35;;;;;;;8.77;5.53;;;3.00;99.90;;;;;;6186008;23;20043;-88
2021/01/27 02:10:01;;;;;;;9.05;5.47;;;3.00;99.90;;;;;;6187765;23;20012;-87
2021/01/27 02:12:45;;;;;;;8.18;5.10;;;3.00;99.90;;;;;;6187905;23;20032;-87
2021/01/27 02:15:19;;;;;;;8.32;5.28;;;3.00;99.90;;;;;;6187947;23;20013;-86
2021/01/27 02:17:56;;;;;;;11.65;5.80;;;2.90;99.90;;;;;;6183817;23;20019;-88
2021/01/27 02:21:09;;;;;;;8.63;5.40;;;2.90;99.90;;;;;;6190676;23;20048;-89
2021/01/27 02:23:53;;;;;;;11.20;6.47;;;2.90;99.90;;;;;;6079831;23;20500;-87
2021/01/27 02:26:37;;;;;;;8.95;5.70;;;2.90;99.90;;;;;;6191216;23;20008;-88
2021/01/27 02:29:09;;;;;;;10.93;5.93;;;2.90;99.90;;;;;;6190794;23;20008;-86
2021/01/27 02:31:59;;;;;;;7.43;5.20;;;2.90;99.90;;;;;;6216850;23;20003;-86
2021/01/27 02:34:59;;;;;;;10.43;5.43;;;2.90;99.90;;;;;;6190650;23;20697;-88
2021/01/27 02:37:33;;;;;;;9.63;5.70;;;2.80;99.90;;;;;;6217455;23;20012;-88
2021/01/27 02:40:23;;;;;;;8.98;5.65;;;2.80;99.90;;;;;;6217576;23;20005;-89
2021/01/27 02:43:24;;;;;;;8.45;5.35;;;2.80;99.90;;;;;;6141601;23;20069;-88
2021/01/27 02:46:00;;;;;;;8.63;4.28;;;2.90;99.90;;;;;;6154370;23;20009;-88
2021/01/27 02:48:30;;;;;;;7.88;4.88;;;2.90;99.90;;;;;;6191240;23;20012;-87
2021/01/27 02:51:09;;;;;;;6.97;4.72;;;2.90;99.90;;;;;;6190741;23;20083;-88
2021/01/27 02:53:39;;;;;;;7.10;4.65;;;2.90;99.90;;;;;;6190780;23;20009;-87
2021/01/27 02:56:27;;;;;;;9.73;5.00;;;2.90;99.90;;;;;;6190939;23;20096;-87
2021/01/27 02:59:03;;;;;;;7.72;4.88;;;2.90;99.90;;;;;;6190793;23;20059;-87
2021/01/27 03:02:07;;;;;;;7.15;4.32;;;2.90;99.90;;;;;;6189838;23;20092;-87
2021/01/27 03:04:36;;;;;;;;;;;2.90;99.90;;;;;;6183637;23;20059;-87
2021/01/27 03:07:02;;;;;;;8.88;3.97;;;2.90;99.90;;;;;;6216807;23;19982;-87
2021/01/27 03:09:38;;;;;;;5.93;3.42;;;2.90;99.90;;;;;;6190652;23;20016;-88
2021/01/27 03:12:04;;;;;;;7.60;3.85;;;2.90;99.90;;;;;;6190625;23;20004;-88
2021/01/27 03:14:30;;;;;;;6.90;3.58;;;2.90;99.90;;;;;;6190919;23;20001;-88
2021/01/27 03:17:01;;;;;;;5.07;3.60;;;2.90;99.90;;;;;;6190946;23;20042;-87
2021/01/27 03:19:39;;;;;;;6.38;3.58;;;2.90;99.90;;;;;;6217544;23;20001;-86
2021/01/27 03:22:39;;;;;;;4.80;2.92;;;2.90;99.90;;;;;;6190704;23;20009;-86
2021/01/27 03:25:16;;;;;;;6.70;4.03;;;2.90;99.90;;;;;;6190355;23;20039;-86
2021/01/27 03:28:01;;;;;;;7.15;3.67;;;2.90;99.90;;;;;;6190432;23;20451;-88
2021/01/27 03:30:29;;;;;;;5.80;3.53;;;2.90;99.90;;;;;;6217168;23;20005;-87
2021/01/27 03:33:10;;;;;;;7.28;3.22;;;2.90;99.90;;;;;;6190408;23;20005;-87
2021/01/27 03:35:52;;;;;;;8.18;3.90;;;2.90;99.90;;;;;;6190467;23;20016;-87
2021/01/27 03:38:36;;;;;;;4.65;3.28;;;2.90;99.90;;;;;;6190111;23;20020;-87
2021/01/27 03:41:20;;;;;;;7.07;3.90;;;2.90;99.90;;;;;;6190369;23;20342;-87
2021/01/27 03:44:22;;;;;;;5.47;3.25;;;2.90;99.90;;;;;;6217056;23;20001;-87
2021/01/27 03:47:08;;;;;;;4.80;3.13;;;2.80;99.90;;;;;;6190670;23;20001;-87
2021/01/27 03:49:43;;;;;;;5.38;3.22;;;2.80;99.90;;;;;;6183348;23;20019;-86
2021/01/27 03:52:16;;;;;;;6.38;3.00;;;2.80;99.90;;;;;;6216483;23;20031;-87
2021/01/27 03:54:52;;;;;;;6.97;3.30;;;2.80;99.90;;;;;;6190288;23;20055;-88
2021/01/27 03:57:22;;;;;;;5.53;3.40;;;2.70;99.90;;;;;;6216780;23;20013;-87
2021/01/27 03:59:49;;;;;;;6.50;2.97;;;2.70;99.90;;;;;;6216605;23;19996;-87
2021/01/27 04:02:21;;;;;;;5.10;3.00;;;2.70;99.90;;;;;;6189922;23;20012;-87
2021/01/27 04:04:47;;;;;;;5.30;3.35;;;2.60;99.90;;;;;;6189819;23;20004;-87
2021/01/27 04:07:13;;;;;;;5.93;3.28;;;2.60;99.90;;;;;;6189379;23;20027;-86
2021/01/27 04:09:39;;;;;;;5.88;3.55;;;2.60;99.90;;;;;;6189681;23;20008;-88
2021/01/27 04:12:05;;;;;;;7.00;3.58;;;2.60;99.90;;;;;;6189542;23;20146;-87
2021/01/27 04:14:30;;;;;;;7.78;3.22;;;2.50;99.90;;;;;;6189659;23;20019;-89
2021/01/27 04:16:56;;;;;;;6.65;3.22;;;2.60;99.90;;;;;;6216172;23;20423;-88
2021/01/27 04:19:22;;;;;;;6.28;3.28;;;2.60;99.90;;;;;;6190071;23;20063;-88
2021/01/27 04:21:47;;;;;;;4.85;3.35;;;2.60;99.90;;;;;;6216413;23;20426;-87
2021/01/27 04:24:13;;;;;;;6.15;3.25;;;2.60;99.90;;;;;;6189903;23;20032;-87
2021/01/27 04:26:38;;;;;;;5.95;3.20;;;2.60;99.90;;;;;;6189698;23;20000;-87
2021/01/27 04:29:05;;;;;;;7.15;3.58;;;2.70;99.90;;;;;;6216004;23;20004;-88
2021/01/27 04:31:30;;;;;;;5.90;3.47;;;2.70;99.90;;;;;;6189319;23;20335;-87
2021/01/27 04:33:56;;;;;;;7.55;4.18;;;2.70;99.90;;;;;;6215893;23;20000;-87
2021/01/27 04:36:22;;;;;;;6.45;3.35;;;2.70;99.90;;;;;;6189185;23;20374;-88
2021/01/27 04:38:50;;;;;;;6.40;3.65;;;2.70;99.90;;;;;;6189764;23;20439;-87
2021/01/27 04:41:16;;;;;;;5.97;3.50;;;2.70;99.90;;;;;;6215590;23;20134;-87
2021/01/27 04:43:45;;;;;;;6.70;3.83;;;2.70;99.90;;;;;;6189823;23;20057;-86
2021/01/27 04:46:14;;;;;;;6.63;3.55;;;2.70;99.90;;;;;;6215947;23;20070;-87
2021/01/27 04:49:01;;;;;;;6.63;3.80;;;2.70;99.90;;;;;;6189469;23;20012;-87
2021/01/27 04:51:36;;;;;;;7.45;3.67;;;2.70;99.90;;;;;;6189213;23;20031;-87
2021/01/27 04:54:24;;;;;;;6.35;3.70;;;2.70;99.90;;;;;;6189803;23;20087;-87
2021/01/27 04:57:34;;;;;;;5.28;3.45;;;2.70;99.90;;;;;;6190127;23;20481;-86
2021/01/27 05:00:11;;;;;;;5.00;3.38;;;2.70;99.90;;;;;;6133551;23;20067;-88
2021/01/27 05:02:57;;;;;;;7.13;4.05;;;2.70;99.90;;;;;;6189298;23;20435;-86
2021/01/27 05:05:29;;;;;;;5.97;3.58;;;2.70;99.90;;;;;;6215293;23;20363;-86
2021/01/27 05:08:15;;;;;;;6.10;3.95;;;2.70;99.90;;;;;;6189318;23;20036;-87
2021/01/27 05:11:05;;;;;;;7.82;4.03;;;2.70;99.90;;;;;;6215706;23;20001;-87
2021/01/27 05:13:45;;;;;;;7.30;4.20;;;2.70;99.90;;;;;;6189236;23;20013;-87
2021/01/27 05:16:14;;;;;;;6.35;3.85;;;2.70;99.90;;;;;;6189030;23;20005;-87
2021/01/27 05:18:41;;;;;;;6.88;3.85;;;2.70;99.90;;;;;;6215810;23;20419;-88
2021/01/27 05:21:33;;;;;;;8.23;3.88;;;2.70;99.90;;;;;;6215829;23;20001;-87
2021/01/27 05:24:00;;;;;;;7.18;4.22;;;2.70;99.90;;;;;;6208765;23;20039;-88
2021/01/27 05:27:10;;;;;;;7.43;4.40;;;2.60;99.90;;;;;;6215794;23;20079;-86
2021/01/27 05:29:41;;;;;;;8.13;4.85;;;2.60;99.90;;;;;;6133791;23;20017;-88
2021/01/27 05:32:35;;;;;;;8.70;5.03;;;2.60;99.90;;;;;;6189956;23;20009;-87
2021/01/27 05:35:38;;;;;;;8.25;4.80;;;2.60;99.90;;;;;;6186374;23;20013;-87
2021/01/27 05:38:24;;;;;;;8.02;5.53;;;2.50;99.90;;;;;;6189321;23;20347;-85
2021/01/27 05:41:02;;;;;;;9.25;5.20;;;2.40;99.90;;;;;;6189119;23;20008;-86
2021/01/27 05:43:28;;;;;;;7.90;5.57;;;2.40;99.90;;;;;;6215659;23;20004;-86
2021/01/27 05:45:54;;;;;;;7.45;5.72;;;2.30;99.90;;;;;;6189350;23;20090;-86
2021/01/27 05:48:33;;;;;;;9.13;5.72;;;2.30;99.90;;;;;;6215698;23;20001;-87
2021/01/27 05:51:01;;;;;;;6.88;5.18;;;2.30;99.90;;;;;;6189600;23;20091;-86
2021/01/27 05:53:29;;;;;;;7.78;5.90;;;2.20;99.90;;;;;;6217578;23;20005;-87
2021/01/27 05:56:02;;;;;;;8.05;6.03;;;2.20;99.90;;;;;;6190890;23;19997;-87
2021/01/27 05:58:31;;;;;;;8.63;6.15;;;2.20;99.90;;;;;;6217446;23;20009;-86
2021/01/27 06:01:15;;;;;;;9.77;6.10;;;2.20;99.90;;;;;;6191027;23;20001;-87
2021/01/27 06:03:55;;;;;;;9.18;5.68;;;2.20;99.90;;;;;;6191203;23;20346;-86
2021/01/27 06:06:21;;;;;;;8.90;5.80;;;2.20;99.90;;;;;;6190705;23;20008;-86
2021/01/27 06:08:57;;;;;;;9.45;6.68;;;2.20;99.90;;;;;;6190415;23;20023;-86
2021/01/27 06:11:24;;;;;;;10.88;6.90;;;2.10;99.90;;;;;;6190031;23;20001;-86
2021/01/27 06:13:51;;;;;;;9.95;6.35;;;2.10;99.90;;;;;;6190274;23;20335;-87
2021/01/27 06:16:31;;;;;;;10.40;6.82;;;2.10;99.90;;;;;;6216993;23;20374;-85
2021/01/27 06:19:19;;;;;;;9.63;6.55;;;2.10;99.90;;;;;;6190210;23;20454;-86
2021/01/27 06:22:16;;;;;;;8.82;6.57;;;2.10;99.90;;;;;;6215909;23;20028;-88
2021/01/27 06:25:09;;;;;;;9.68;5.90;;;2.10;99.90;;;;;;6190034;23;20049;-87
2021/01/27 06:27:56;;;;;;;9.55;7.15;;;2.00;99.90;;;;;;6190148;23;20009;-86
2021/01/27 06:30:40;;;;;;;10.55;7.20;;;2.10;99.90;;;;;;6190797;23;20382;-88
2021/01/27 06:33:20;;;;;;;;;;;2.00;99.90;;;;;;6190650;23;20000;-87
2021/01/27 06:36:18;;;;;;;8.75;6.80;;;2.00;99.90;;;;;;6190505;23;19900;-87
2021/01/27 06:39:15;;;;;;;8.52;7.00;;;2.00;99.90;;;;;;6062927;23;20095;-86
2021/01/27 06:42:04;;;;;;;9.77;7.45;;;2.00;99.90;;;;;;6190297;23;20096;-86
2021/01/27 06:44:51;;;;;;;11.27;7.80;;;2.00;99.90;;;;;;6216697;23;20011;-88
2021/01/27 06:47:40;;;;;;;10.63;8.38;;;2.00;99.90;;;;;;6190027;23;20095;-86
2021/01/27 06:50:44;;;;;;;12.82;9.20;;;2.00;99.90;;;;;;6189991;23;20008;-86
2021/01/27 06:53:28;;;;;;;8.52;7.32;;;2.00;99.90;;;;;;6042351;23;20536;-85
2021/01/27 06:55:59;;;;;;;11.40;8.52;;;2.00;99.90;;;;;;6066783;23;20033;-85
2021/01/27 06:58:49;;;;;;;12.18;9.27;;;2.00;99.90;;;;;;6134573;23;20103;-86
2021/01/27 07:01:35;;;;;;;12.02;8.25;;;2.00;99.90;;;;;;6189586;23;20033;-85
2021/01/27 07:04:34;;;;;;;13.00;9.50;;;2.00;99.90;;;;;;6114671;23;20017;-85
2021/01/27 07:07:36;;;;;;;11.38;8.70;;;1.90;99.90;;;;;;6216135;23;19997;-86
2021/01/27 07:10:21;;;;;;;12.40;9.98;;;1.90;99.90;;;;;;6216586;23;20367;-86
2021/01/27 07:12:52;;;;;;;14.32;10.68;;;2.00;99.90;;;;;;6189760;23;20011;-86
2021/01/27 07:15:20;;;;;;;11.68;9.50;;;1.90;99.90;;;;;;6215776;23;19997;-86
2021/01/27 07:17:54;;;;;;;13.30;11.00;;;1.90;99.90;;;;;;6216043;23;20044;-87
2021/01/27 07:20:35;;;;;;;14.07;10.75;;;1.90;99.90;;;;;;6189072;23;20494;-85
2021/01/27 07:23:40;;;;;;;17.15;12.93;;;1.90;99.90;;;;;;6216502;23;20008;-86
2021/01/27 07:26:21;;;;;;;16.73;12.82;;;1.90;99.90;;;;;;6138725;23;20008;-87
2021/01/27 07:29:08;;;;;;;15.35;11.25;;;1.90;99.90;;;;;;6190108;23;20082;-86
2021/01/27 07:31:36;;;;;;;17.58;13.25;;;2.00;99.90;;;;;;6189986;23;20035;-86
2021/01/27 07:34:36;;;;;;;13.40;11.15;;;1.90;99.90;;;;;;6189810;23;20008;-85
2021/01/27 07:37:16;;;;;;;14.70;12.70;;;2.00;99.90;;;;;;6216253;23;20300;-86
2021/01/27 07:39:50;;;;;;;18.08;14.10;;;2.00;99.90;;;;;;6216194;23;20020;-86
2021/01/27 07:42:26;;;;;;;15.27;12.43;;;2.00;99.90;;;;;;6189763;23;20339;-87
2021/01/27 07:45:05;;;;;;;18.92;14.25;;;2.00;99.90;;;;;;6189748;23;20012;-86
2021/01/27 07:48:00;;;;;;;16.20;12.35;;;2.00;99.90;;;;;;6165822;23;20009;-86
2021/01/27 07:50:26;;;;;;;18.63;14.57;;;2.00;99.90;;;;;;6215836;23;20005;-84
2021/01/27 07:53:24;;;;;;;17.35;13.73;;;2.00;99.90;;;;;;6213006;23;20091;-87
2021/01/27 07:56:00;;;;;;;16.88;13.65;;;2.00;99.90;;;;;;6123478;23;20040;-88
2021/01/27 07:58:37;;;;;;;17.42;14.77;;;2.10;99.90;;;;;;6215667;23;20009;-85
2021/01/27 08:01:10;;;;;;;19.13;14.80;;;2.10;99.90;;;;;;6189210;23;20004;-86
2021/01/27 08:04:05;;;;;;;20.70;16.20;;;2.10;99.90;;;;;;6216049;23;20027;-85
2021/01/27 08:06:45;;;;;;;24.98;17.10;;;2.10;99.90;;;;;;6192280;23;20407;-87
2021/01/27 08:09:12;;;;;;;18.25;14.52;;;2.10;99.90;;;;;;6193217;23;20263;-86
2021/01/27 08:11:42;;;;;;;19.17;15.27;;;2.20;99.90;;;;;;6193372;23;20456;-87
2021/01/27 08:14:10;;;;;;;17.02;13.60;;;2.20;99.90;;;;;;6220300;23;20446;-86
2021/01/27 08:16:44;;;;;;;22.42;14.00;;;2.20;99.90;;;;;;6191680;23;20004;-87
2021/01/27 08:19:13;;;;;;;18.33;13.32;;;2.30;99.90;;;;;;6217184;23;20468;-87
2021/01/27 08:22:00;;;;;;;19.23;14.43;;;2.30;99.90;;;;;;6216952;23;20446;-86
2021/01/27 08:24:37;;;;;;;17.88;13.88;;;2.30;99.90;;;;;;6190225;23;20004;-87
2021/01/27 08:27:15;;;;;;;17.60;14.35;;;2.30;99.90;;;;;;6217199;23;20000;-87
2021/01/27 08:29:41;;;;;;;16.73;13.10;;;2.30;99.90;;;;;;6190811;23;20009;-89
2021/01/27 08:32:28;;;;;;;17.20;12.88;;;2.40;99.90;;;;;;6189602;23;20009;-87
2021/01/27 08:35:34;;;;;;;15.45;11.98;;;2.40;99.90;;;;;;6189308;23;20427;-88
2021/01/27 08:38:26;;;;;;;16.00;12.48;;;2.40;99.90;;;;;;6125512;23;20021;-87
2021/01/27 08:40:52;;;;;;;17.65;13.90;;;2.50;99.90;;;;;;6189879;23;20012;-86
2021/01/27 08:43:18;;;;;;;15.88;12.50;;;2.50;99.90;;;;;;6189810;23;20301;-86
2021/01/27 08:45:46;;;;;;;20.95;15.38;;;2.50;99.90;;;;;;6189870;23;20040;-84
2021/01/27 08:48:14;;;;;;;16.95;13.35;;;2.50;99.90;;;;;;6190814;23;20445;-85
2021/01/27 08:50:49;;;;;;;15.43;13.18;;;2.50;99.90;;;;;;6190287;23;20423;-85
2021/01/27 08:53:26;;;;;;;14.98;12.13;;;2.50;99.90;;;;;;6190559;23;20032;-86
2021/01/27 08:56:00;;;;;;;15.23;12.27;;;2.50;99.90;;;;;;6217321;23;20334;-87
2021/01/27 08:58:37;;;;;;;14.43;11.52;;;2.50;99.90;;;;;;6190312;23;20016;-87
2021/01/27 09:01:10;;;;;;;14.98;11.75;;;2.60;99.90;;;;;;6222287;23;20000;-85
2021/01/27 09:03:45;;;;;;;13.63;10.85;;;2.60;99.90;;;;;;6195772;23;20032;-85
2021/01/27 09:06:34;;;;;;;13.80;10.60;;;2.60;99.90;;;;;;6215403;23;20080;-85
2021/01/27 09:09:26;;;;;;;13.35;10.93;;;2.70;99.90;;;;;;6184961;23;20059;-85
2021/01/27 09:12:57;;;;;;;12.52;9.85;;;2.70;99.90;;;;;;6185068;23;20058;-85
2021/01/27 09:16:27;;;;;;;13.32;10.40;;;2.70;99.90;;;;;;6185025;23;20056;-86
2021/01/27 09:19:58;;;;;;;13.93;10.73;;;2.70;99.90;;;;;;6183716;23;20058;-85
2021/01/27 09:23:29;;;;;;;13.73;10.60;;;2.70;99.90;;;;;;6210726;23;20035;-85
2021/01/27 09:27:00;;;;;;;13.50;10.50;;;2.80;99.90;;;;;;6183666;23;20025;-85
2021/01/27 09:30:30;;;;;;;12.32;9.40;;;2.80;99.90;;;;;;6185533;23;20032;-87
2021/01/27 09:34:01;;;;;;;13.45;10.60;;;2.80;99.90;;;;;;6187979;23;20043;-87
2021/01/27 09:37:31;;;;;;;15.20;11.98;;;2.80;99.90;;;;;;6188103;23;20016;-86
2021/01/27 09:41:01;;;;;;;13.73;11.50;;;2.80;99.90;;;;;;6213266;23;20580;-85
2021/01/27 09:44:18;;;;;;;14.48;10.07;;;2.80;99.90;;;;;;6187496;23;20082;-85
2021/01/27 09:46:44;;;;;;;14.10;10.80;;;2.80;99.90;;;;;;6186956;23;20015;-85
2021/01/27 09:49:12;;;;;;;15.32;11.30;;;2.90;99.90;;;;;;6187270;23;20009;-85
2021/01/27 09:51:40;;;;;;;15.60;12.50;;;2.90;99.90;;;;;;6186138;23;20023;-86
2021/01/27 09:54:06;;;;;;;16.85;13.02;;;3.00;99.90;;;;;;6187858;23;20000;-87
2021/01/27 09:56:33;;;;;;;16.05;12.63;;;3.00;99.90;;;;;;6187909;23;20343;-86
2021/01/27 09:58:59;;;;;;;16.30;13.13;;;2.90;99.90;;;;;;6189601;23;20001;-86
2021/01/27 10:01:29;;;;;;;18.73;12.75;;;3.00;99.90;;;;;;6191375;23;20005;-88
2021/01/27 10:04:17;;;;;;;18.42;13.68;;;3.00;99.90;;;;;;6219210;23;20048;-86
2021/01/27 10:06:54;;;;;;;20.38;14.68;;;3.10;99.90;;;;;;6192537;23;20008;-88
2021/01/27 10:09:37;;;;;;;20.17;14.95;;;3.00;99.90;;;;;;6167438;23;20027;-88
2021/01/27 17:21:37;;;;;;;75.55;33.33;;;6.00;99.90;;;;;;6231297;22;20025;-88
2021/01/27 17:24:03;;;;;;;64.03;30.83;;;6.10;99.90;;;;;;6218034;23;20015;-87
2021/01/27 17:27:16;;;;;;;69.80;31.33;;;6.10;99.90;;;;;;6217630;23;20012;-92
2021/01/27 17:42:43;;;;;;;;;;;;;;;;;;;;;
2021/01/27 17:45:58;;;;;;;;;;;;;;;;;;;;;
2021/01/27 17:49:06;;;;;;;65.32;30.50;;;6.10;99.90;;;;;;6156770;23;20458;-94
2021/01/27 17:52:47;;;;;;;;;;;;;;;;;;;;;
2021/01/27 17:55:30;;;;;;;68.20;32.03;;;6.20;99.90;;;;;;5999772;23;20012;-94
2021/01/27 17:58:29;;;;;;;;;;;;;;;;;;;;;
2021/01/27 18:08:20;;;;;;;;;;;;;;;;;;;;;
2021/01/27 18:11:16;;;;;;;71.22;31.92;;;6.20;99.90;;;;;;6152184;23;20128;-95
2021/01/27 18:14:11;;;;;;;78.30;33.20;;;6.20;99.90;;;;;;6207014;23;20015;-94
2021/01/27 18:20:28;;;;;;;80.05;31.38;;;6.20;99.90;;;;;;6206326;23;20016;-93
2021/01/27 18:23:30;;;;;;;;;;;;;;;;;;;;;
2021/01/27 18:26:41;;;;;;;;;;;;;;;;;;;;;
2021/01/27 18:29:34;;;;;;;69.65;30.35;;;6.20;99.90;;;;;;6238535;22;20092;-94
2021/01/27 18:32:52;;;;;;;;;;;;;;;;;;;;;
2021/01/27 19:08:10;;;;;;;;;;;;;;;;;;;;;
2021/01/27 19:17:41;;;;;;;98.72;33.55;;;6.30;99.90;;;;;;5816482;24;20019;-93
2021/01/27 19:21:24;;;;;;;;;;;;;;;;;;;;;
2021/01/27 19:24:50;;;;;;;89.82;33.05;;;6.30;99.90;;;;;;5814496;24;20118;-93
2021/01/27 19:28:15;;;;;;;95.50;33.45;;;6.30;99.90;;;;;;5814540;24;20027;-95
2021/01/27 19:31:06;;;;;;;100.45;36.30;;;6.30;99.90;;;;;;5813840;24;20023;-96
2021/01/27 19:37:22;;;;;;;95.90;35.42;;;6.30;99.90;;;;;;5759643;24;20139;-93
2021/01/27 19:40:32;;;;;;;99.32;35.88;;;6.30;99.90;;;;;;5762997;24;20043;-94
2021/01/27 19:43:56;;;;;;;;;;;;;;;;;;;;;
2021/01/27 19:53:35;;;;;;;83.97;34.25;;;6.40;99.90;;;;;;5919384;23;20009;-94
2021/01/27 19:56:57;;;;;;;;;;;;;;;;;;;;;
2021/01/27 20:00:24;;;;;;;;;;;;;;;;;;;;;
2021/01/27 20:05:58;;;;;;;104.30;38.80;;;6.30;99.90;;;;;;6154684;23;20033;-95
2021/01/27 20:09:30;;;;;;;;;;;;;;;;;;;;;
2021/01/27 20:15:22;;;;;;;97.80;38.50;;;6.40;99.90;;;;;;6153951;23;20009;-95
2021/01/27 20:18:44;;;;;;;;;;;;;;;;;;;;;
2021/01/27 20:21:39;;;;;;;;;;;;;;;;;;;;;
2021/01/27 20:25:12;;;;;;;;;;;;;;;;;;;;;
2021/01/27 20:32:39;;;;;;;;;;;;;;;;;;;;;
2021/01/27 20:35:29;;;;;;;83.55;34.53;;;6.40;99.90;;;;;;5994093;23;20018;-92
2021/01/27 20:42:24;;;;;;;113.25;42.05;;;6.40;99.90;;;;;;5930313;24;20045;-93
2021/01/27 20:45:33;;;;;;;118.13;41.63;;;6.40;99.90;;;;;;6031441;23;20014;-93
2021/01/27 20:48:41;;;;;;;103.85;38.75;;;6.40;99.90;;;;;;6120637;23;20044;-92
2021/01/27 20:51:58;;;;;;;;;;;;;;;;;;;;;
2021/01/27 20:55:05;;;;;;;;;;;;;;;;;;;;;
2021/01/27 20:58:06;;;;;;;117.05;41.80;;;6.40;99.90;;;;;;6255616;22;20519;-92
2021/01/27 21:01:31;;;;;;;;;;;;;;;;;;;;;
2021/01/27 21:08:03;;;;;;;;;;;;;;;;;;;;;
2021/01/27 21:11:36;;;;;;;;;;;;;;;;;;;;;
2021/01/27 21:15:16;;;;;;;;;;;;;;;;;;;;;
2021/01/27 21:18:13;;;;;;;;;;;;;;;;;;;;;
2021/01/27 21:21:26;;;;;;;117.15;41.80;;;6.50;99.90;;;;;;6151072;23;20088;-93
2021/01/27 21:27:24;;;;;;;113.68;43.17;;;6.50;99.90;;;;;;6109973;23;20363;-92
2021/01/27 21:33:15;;;;;;;118.32;42.85;;;6.60;99.90;;;;;;6180954;23;20366;-91
2021/01/27 21:35:55;;;;;;;127.88;43.40;;;6.50;99.90;;;;;;6136748;23;20083;-93
2021/01/27 21:38:56;;;;;;;117.50;41.65;;;6.50;99.90;;;;;;6155906;23;20005;-94
2021/01/27 21:41:33;;;;;;;113.30;42.40;;;6.60;99.90;;;;;;6239980;22;20020;-93
2021/01/27 21:44:30;;;;;;;134.35;43.83;;;6.60;99.90;;;;;;6273803;22;20004;-94
2021/01/27 21:47:36;;;;;;;;;;;;;;;;;;;;;
2021/01/27 21:50:42;;;;;;;126.85;39.33;;;6.60;99.90;;;;;;6273909;22;20026;-94
2021/01/27 21:53:21;;;;;;;127.38;38.78;;;6.60;99.90;;;;;;6269213;22;20035;-94
2021/01/27 21:56:13;;;;;;;109.60;38.55;;;6.70;99.90;;;;;;6224197;22;20016;-95
2021/01/27 21:59:10;;;;;;;98.90;35.70;;;6.70;99.90;;;;;;6224855;23;20052;-91
2021/01/27 22:02:03;;;;;;;101.88;36.17;;;6.70;99.90;;;;;;6221058;23;20023;-95
2021/01/27 22:05:03;;;;;;;84.20;32.58;;;6.70;99.90;;;;;;6215956;23;20008;-93
2021/01/27 22:07:41;;;;;;;90.20;32.08;;;6.70;99.90;;;;;;6217474;23;20013;-93
2021/01/27 22:10:28;;;;;;;;;;;;;;;;;;;;;
2021/01/27 22:13:26;;;;;;;;;;;;;;;;;;;;;
2021/01/27 22:15:57;;;;;;;100.63;35.25;;;6.80;99.90;;;;;;6241901;23;20056;-95
2021/01/27 22:18:39;;;;;;;94.97;35.58;;;6.70;99.90;;;;;;6245442;23;20310;-93
2021/01/27 22:21:13;;;;;;;100.78;34.08;;;6.70;99.90;;;;;;6194464;23;20023;-93
2021/01/27 22:24:28;;;;;;;88.85;34.78;;;6.70;99.90;;;;;;6217029;23;20015;-92
2021/01/27 22:27:27;;;;;;;103.22;35.90;;;6.70;99.90;;;;;;6218331;23;20012;-92
2021/01/27 22:30:38;;;;;;;94.43;35.75;;;6.80;99.90;;;;;;6212293;23;20016;-92
2021/01/27 22:33:40;;;;;;;104.80;36.60;;;6.80;99.90;;;;;;6218537;23;20499;-93
2021/01/27 22:36:14;;;;;;;101.30;39.42;;;6.80;99.90;;;;;;6218068;23;20038;-93
2021/01/27 22:38:50;;;;;;;103.32;37.83;;;6.80;99.90;;;;;;6218887;23;20012;-93
2021/01/27 22:41:21;;;;;;;101.25;36.22;;;6.80;99.90;;;;;;6193659;23;20061;-93
2021/01/27 22:44:05;;;;;;;;;;;;;;;;;;;;;
2021/01/27 22:49:44;;;;;;;92.20;32.97;;;6.80;99.90;;;;;;6244145;23;20039;-94
2021/01/27 22:52:27;;;;;;;;;;;;;;;;;;;;;
2021/01/27 22:55:04;;;;;;;91.28;33.33;;;6.80;99.90;;;;;;6220930;23;20072;-93
2021/01/27 22:57:39;;;;;;;85.72;31.02;;;6.80;99.90;;;;;;6192674;22;20103;-91
2021/01/27 23:00:41;;;;;;;77.55;31.23;;;6.80;99.90;;;;;;6244592;23;20023;-91
2021/01/27 23:06:36;;;;;;;;;;;;;;;;;;;;;
2021/01/27 23:09:14;;;;;;;90.72;36.40;;;6.70;99.90;;;;;;6244402;23;20083;-93
2021/01/27 23:11:47;;;;;;;84.47;30.85;;;6.80;99.90;;;;;;6218073;23;20008;-93
2021/01/27 23:14:24;;;;;;;86.07;32.63;;;6.80;99.90;;;;;;6218330;23;20014;-93
2021/01/27 23:17:18;;;;;;;74.63;31.35;;;6.80;99.90;;;;;;6218292;23;20004;-92
2021/01/27 23:20:02;;;;;;;;;;;6.80;99.90;;;;;;6218964;23;20054;-94
2021/01/27 23:22:47;;;;;;;76.93;28.95;;;6.70;99.90;;;;;;6218789;23;19899;-93
2021/01/27 23:25:38;;;;;;;76.15;29.88;;;6.80;99.90;;;;;;6218410;23;20004;-92
2021/01/27 23:28:34;;;;;;;68.50;28.08;;;6.80;99.90;;;;;;6217864;23;20036;-92
2021/01/27 23:31:14;;;;;;;71.03;29.63;;;6.80;99.90;;;;;;6211434;23;20035;-92
2021/01/27 23:34:16;;;;;;;73.18;28.02;;;6.80;99.90;;;;;;6217774;23;20072;-91
2021/01/27 23:37:11;;;;;;;71.78;28.65;;;6.80;99.90;;;;;;6217862;23;20112;-92
2021/01/27 23:39:49;;;;;;;;;;;;;;;;;;;;;
2021/01/27 23:42:57;;;;;;;72.70;29.83;;;6.80;99.90;;;;;;6244656;23;20087;-92
2021/01/27 23:45:37;;;;;;;65.50;26.02;;;6.80;99.90;;;;;;6237045;22;20016;-91
2021/01/27 23:48:06;;;;;;;75.13;27.92;;;6.80;99.90;;;;;;6217546;22;20087;-93